createdAt,value
2023-03-31T00:02:23.616Z,94866.16
2023-03-31T00:04:54.054Z,94860.09
2023-03-31T00:07:24.334Z,94861.34
2023-03-31T00:10:06.798Z,94860.88
2023-03-31T00:12:44.347Z,94862.28
2023-03-31T00:15:15.176Z,94858.91
2023-03-31T00:17:44.246Z,94854.22
2023-03-31T00:20:16.367Z,94857.66
2023-03-31T00:22:46.814Z,94860.88
2023-03-31T00:25:17.365Z,94858.00
2023-03-31T00:27:47.156Z,94856.28
2023-03-31T00:30:18.136Z,94852.16
2023-03-31T00:32:47.457Z,94848.84
2023-03-31T00:35:16.632Z,94849.16
2023-03-31T00:37:46.156Z,94849.84
2023-03-31T00:40:15.360Z,94841.22
2023-03-31T00:42:46.807Z,94839.50
2023-03-31T00:45:31.622Z,94838.25
2023-03-31T00:48:10.498Z,94842.16
2023-03-31T00:50:49.527Z,94843.03
2023-03-31T00:53:24.774Z,94837.91
2023-03-31T00:55:56.905Z,94836.41
2023-03-31T00:58:29.077Z,94843.75
2023-03-31T01:01:02.629Z,94830.53
2023-03-31T01:03:34.782Z,94844.22
2023-03-31T01:06:06.376Z,94839.81
2023-03-31T01:08:39.076Z,94841.69
2023-03-31T01:11:11.594Z,94836.72
2023-03-31T01:13:42.821Z,94842.47
2023-03-31T01:16:13.937Z,94844.22
2023-03-31T01:18:46.740Z,94845.09
2023-03-31T01:22:07.107Z,94843.75
2023-03-31T01:25:17.443Z,94840.06
2023-03-31T01:28:08.885Z,94850.06
2023-03-31T01:31:18.829Z,94853.63
2023-03-31T01:34:32.355Z,94850.72
2023-03-31T01:37:34.711Z,94853.94
2023-03-31T01:40:41.477Z,94848.88
2023-03-31T01:43:20.443Z,94852.53
2023-03-31T01:45:59.039Z,94854.50
2023-03-31T01:48:43.555Z,94861.88
2023-03-31T01:51:19.846Z,94872.53
2023-03-31T01:53:56.435Z,94872.53
2023-03-31T01:56:34.657Z,94873.81
2023-03-31T01:59:11.977Z,94876.25
2023-03-31T02:01:49.503Z,94875.97
2023-03-31T02:04:23.278Z,94867.72
2023-03-31T02:07:01.937Z,94876.91
2023-03-31T02:09:35.034Z,94874.50
2023-03-31T02:12:09.275Z,94875.75
2023-03-31T02:14:43.795Z,94889.09
2023-03-31T02:17:19.548Z,94881.38
2023-03-31T02:19:53.320Z,94885.88
2023-03-31T02:22:25.450Z,94884.25
2023-03-31T02:24:56.328Z,94874.28
2023-03-31T02:27:29.823Z,94868.31
2023-03-31T02:30:00.234Z,94862.69
2023-03-31T02:32:33.964Z,94863.28
2023-03-31T02:35:03.594Z,94866.38
2023-03-31T02:37:33.026Z,94864.41
2023-03-31T02:40:06.749Z,94859.03
2023-03-31T02:42:38.621Z,94855.13
2023-03-31T02:45:29.802Z,94848.31
2023-03-31T02:47:59.326Z,94849.84
2023-03-31T02:50:35.579Z,94845.44
2023-03-31T02:53:11.845Z,94848.81
2023-03-31T02:56:01.870Z,94840.72
2023-03-31T02:58:47.409Z,94832.94
2023-03-31T03:01:43.704Z,94832.56
2023-03-31T03:04:38.753Z,94822.56
2023-03-31T03:07:17.422Z,94817.59
2023-03-31T03:09:59.742Z,94824.03
2023-03-31T03:12:35.646Z,94828.97
2023-03-31T03:15:12.597Z,94817.34
2023-03-31T03:17:45.809Z,94807.34
2023-03-31T03:20:16.556Z,94817.13
2023-03-31T03:22:45.803Z,94821.22
2023-03-31T03:25:18.509Z,94823.66
2023-03-31T03:27:49.455Z,94829.28
2023-03-31T03:30:21.097Z,94819.97
2023-03-31T03:32:50.851Z,94824.88
2023-03-31T03:35:20.185Z,94811.22
2023-03-31T03:37:49.332Z,94816.50
2023-03-31T03:40:19.796Z,94819.50
2023-03-31T03:42:49.208Z,94813.28
2023-03-31T03:45:19.775Z,94822.75
2023-03-31T03:47:49.003Z,94830.19
2023-03-31T03:50:18.381Z,94833.91
2023-03-31T03:52:47.345Z,94835.50
2023-03-31T03:55:18.110Z,94837.91
2023-03-31T03:57:47.160Z,94833.53
2023-03-31T04:00:17.344Z,94836.53
2023-03-31T04:02:47.929Z,94835.03
2023-03-31T04:05:18.076Z,94831.13
2023-03-31T04:07:47.192Z,94846.75
2023-03-31T04:10:16.209Z,94839.16
2023-03-31T04:12:45.255Z,94843.09
2023-03-31T04:15:14.225Z,94837.91
2023-03-31T04:17:51.308Z,94831.94
2023-03-31T04:20:27.946Z,94822.84
2023-03-31T04:22:57.223Z,94818.59
2023-03-31T04:25:26.194Z,94821.81
2023-03-31T04:27:56.045Z,94825.63
2023-03-31T04:30:31.362Z,94821.72
2023-03-31T04:33:02.949Z,94823.56
2023-03-31T04:35:50.145Z,94827.56
2023-03-31T04:38:20.137Z,94817.56
2023-03-31T04:40:51.240Z,94822.16
2023-03-31T04:43:21.880Z,94808.91
2023-03-31T04:45:51.052Z,94806.84
2023-03-31T04:48:20.154Z,94812.72
2023-03-31T04:50:51.444Z,94811.91
2023-03-31T04:53:21.667Z,94810.53
2023-03-31T04:55:50.923Z,94807.16
2023-03-31T04:58:20.213Z,94816.94
2023-03-31T05:00:49.338Z,94816.00
2023-03-31T05:03:18.491Z,94814.00
2023-03-31T05:05:48.280Z,94815.59
2023-03-31T05:08:18.693Z,94811.34
2023-03-31T05:10:47.894Z,94799.50
2023-03-31T05:13:17.136Z,94799.81
2023-03-31T05:15:48.258Z,94795.19
2023-03-31T05:18:17.890Z,94795.81
2023-03-31T05:20:46.956Z,94801.03
2023-03-31T05:23:16.022Z,94794.00
2023-03-31T05:25:46.893Z,94802.50
2023-03-31T05:28:16.077Z,94793.44
2023-03-31T05:30:45.320Z,94796.81
2023-03-31T05:33:15.025Z,94796.94
2023-03-31T05:35:44.100Z,94804.09
2023-03-31T05:38:13.259Z,94799.47
2023-03-31T05:40:42.936Z,94809.34
2023-03-31T05:43:14.124Z,94812.47
2023-03-31T05:45:43.404Z,94804.50
2023-03-31T05:48:12.500Z,94800.91
2023-03-31T05:50:43.277Z,94799.28
2023-03-31T05:53:12.837Z,94793.97
2023-03-31T05:55:41.865Z,94804.34
2023-03-31T05:58:11.017Z,94804.19
2023-03-31T06:00:44.972Z,94802.03
2023-03-31T06:03:14.342Z,94790.38
2023-03-31T06:05:49.952Z,94801.13
2023-03-31T06:08:19.303Z,94796.34
2023-03-31T06:10:48.364Z,94795.31
2023-03-31T06:13:17.843Z,94795.06
2023-03-31T06:15:57.171Z,94798.84
2023-03-31T06:18:27.041Z,94795.94
2023-03-31T06:20:56.356Z,94795.19
2023-03-31T06:23:25.902Z,94794.13
2023-03-31T06:25:55.513Z,94785.34
2023-03-31T06:28:26.094Z,94782.22
2023-03-31T06:31:04.196Z,94786.22
2023-03-31T06:33:33.952Z,94789.53
2023-03-31T06:36:05.885Z,94789.41
2023-03-31T06:38:35.433Z,94794.00
2023-03-31T06:41:04.849Z,94795.63
2023-03-31T06:43:34.758Z,94787.78
2023-03-31T06:46:05.963Z,94778.78
2023-03-31T06:48:35.511Z,94774.50
2023-03-31T06:51:06.822Z,94768.97
2023-03-31T06:53:36.850Z,94764.84
2023-03-31T06:56:07.175Z,94759.75
2023-03-31T06:58:36.817Z,94765.00
2023-03-31T07:01:08.214Z,94757.72
2023-03-31T07:03:39.344Z,94762.59
2023-03-31T07:06:08.931Z,94756.06
2023-03-31T07:08:37.933Z,94751.91
2023-03-31T07:11:07.580Z,94752.53
2023-03-31T07:13:36.763Z,94757.25
2023-03-31T07:16:08.633Z,94757.28
2023-03-31T07:18:41.249Z,94754.75
2023-03-31T07:21:11.029Z,94753.78
2023-03-31T07:23:40.514Z,94752.75
2023-03-31T07:26:09.816Z,94758.94
2023-03-31T07:28:38.844Z,94753.72
2023-03-31T07:31:14.285Z,94755.66
2023-03-31T07:33:43.843Z,94749.97
2023-03-31T07:36:14.127Z,94759.06
2023-03-31T07:38:46.004Z,94748.72
2023-03-31T07:41:16.972Z,94759.38
2023-03-31T07:43:46.988Z,94746.88
2023-03-31T07:46:20.904Z,94739.66
2023-03-31T07:48:50.441Z,94739.59
2023-03-31T07:51:22.543Z,94740.75
2023-03-31T07:53:52.871Z,94725.53
2023-03-31T07:56:23.155Z,94733.50
2023-03-31T07:58:57.396Z,94732.78
2023-03-31T08:01:29.108Z,94732.03
2023-03-31T08:03:59.378Z,94735.47
2023-03-31T08:06:29.285Z,94736.97
2023-03-31T08:08:59.187Z,94735.38
2023-03-31T08:11:28.420Z,94724.63
2023-03-31T08:13:58.291Z,94721.88
2023-03-31T08:16:28.872Z,94724.16
2023-03-31T08:18:58.672Z,94712.56
2023-03-31T08:21:27.738Z,94716.00
2023-03-31T08:23:57.372Z,94715.84
2023-03-31T08:26:26.804Z,94710.50
2023-03-31T08:28:55.801Z,94717.72
2023-03-31T08:31:27.454Z,94715.41
2023-03-31T08:33:58.274Z,94713.66
2023-03-31T08:36:28.392Z,94714.97
2023-03-31T08:38:57.691Z,94704.50
2023-03-31T08:41:42.294Z,94704.13
2023-03-31T08:44:16.953Z,94698.56
2023-03-31T08:46:46.426Z,94698.94
2023-03-31T08:49:20.893Z,94706.16
2023-03-31T08:51:56.827Z,94700.19
2023-03-31T08:54:33.104Z,94700.00
2023-03-31T08:57:05.728Z,94700.03
2023-03-31T08:59:36.561Z,94690.75
2023-03-31T09:02:19.040Z,94694.59
2023-03-31T09:05:20.279Z,94688.81
2023-03-31T09:08:00.432Z,94690.31
2023-03-31T09:10:39.394Z,94694.72
2023-03-31T09:13:25.986Z,94692.72
2023-03-31T09:16:01.414Z,94685.38
2023-03-31T09:18:33.294Z,94690.94
2023-03-31T09:21:13.451Z,94683.66
2023-03-31T09:23:46.337Z,94686.53
2023-03-31T09:26:26.857Z,94686.53
2023-03-31T09:28:59.662Z,94679.59
2023-03-31T09:31:30.051Z,94680.13
2023-03-31T09:34:03.234Z,94678.53
2023-03-31T09:36:34.902Z,94684.06
2023-03-31T09:39:05.372Z,94674.94
2023-03-31T09:41:34.560Z,94671.88
2023-03-31T09:44:03.618Z,94662.69
2023-03-31T09:46:36.262Z,94650.53
2023-03-31T09:49:13.461Z,94651.53
2023-03-31T09:51:49.228Z,94652.59
2023-03-31T09:54:26.794Z,94646.09
2023-03-31T09:56:55.867Z,94642.53
2023-03-31T09:59:31.863Z,94644.19
2023-03-31T10:02:03.259Z,94633.78
2023-03-31T10:04:35.061Z,94632.47
2023-03-31T10:07:08.356Z,94635.53
2023-03-31T10:09:40.851Z,94635.72
2023-03-31T10:12:17.433Z,94631.94
2023-03-31T10:14:50.181Z,94633.22
2023-03-31T10:17:21.298Z,94631.81
2023-03-31T10:19:52.235Z,94624.66
2023-03-31T10:22:31.247Z,94622.56
2023-03-31T10:25:11.169Z,94622.72
2023-03-31T10:27:43.986Z,94626.31
2023-03-31T10:30:19.965Z,94613.38
2023-03-31T10:32:51.996Z,94621.94
2023-03-31T10:35:27.994Z,94620.41
2023-03-31T10:38:03.337Z,94604.19
2023-03-31T10:40:36.688Z,94611.28
2023-03-31T10:43:16.173Z,94610.38
2023-03-31T10:45:49.473Z,94600.59
2023-03-31T10:48:27.146Z,94594.91
2023-03-31T10:51:00.128Z,94597.25
2023-03-31T10:53:30.687Z,94596.75
2023-03-31T10:56:23.380Z,94595.81
2023-03-31T10:59:06.649Z,94585.31
2023-03-31T11:01:49.640Z,94582.50
2023-03-31T11:04:48.305Z,94584.59
2023-03-31T11:07:40.747Z,94578.41
2023-03-31T11:10:36.797Z,94573.22
2023-03-31T11:13:15.053Z,94570.63
2023-03-31T11:15:52.943Z,94567.38
2023-03-31T11:18:42.339Z,94566.78
2023-03-31T11:21:22.472Z,94553.44
2023-03-31T11:24:00.557Z,94554.59
2023-03-31T11:26:41.215Z,94558.75
2023-03-31T11:29:24.659Z,94555.19
2023-03-31T11:32:01.049Z,94554.44
2023-03-31T11:34:57.455Z,94550.91
2023-03-31T11:37:46.146Z,94548.84
2023-03-31T11:40:34.668Z,94545.38
2023-03-31T11:43:14.016Z,94543.38
2023-03-31T11:45:51.179Z,94536.22
2023-03-31T11:48:28.129Z,94535.19
2023-03-31T11:50:58.896Z,94515.13
2023-03-31T11:53:33.922Z,94516.47
2023-03-31T11:56:07.897Z,94513.38
2023-03-31T11:58:43.865Z,94513.91
2023-03-31T12:01:21.765Z,94512.56
2023-03-31T12:03:57.813Z,94512.69
2023-03-31T12:06:32.351Z,94504.88
2023-03-31T12:09:09.904Z,94494.25
2023-03-31T12:11:44.898Z,94484.78
2023-03-31T12:14:28.748Z,94484.09
2023-03-31T12:17:01.751Z,94485.81
2023-03-31T12:19:35.658Z,94485.06
2023-03-31T12:22:15.572Z,94472.00
2023-03-31T12:24:44.847Z,94484.00
2023-03-31T12:27:18.869Z,94482.72
2023-03-31T12:29:57.099Z,94471.53
2023-03-31T12:32:29.853Z,94464.66
2023-03-31T12:35:04.231Z,94455.00
2023-03-31T12:38:16.631Z,94460.28
2023-03-31T12:40:59.202Z,94448.16
2023-03-31T12:43:48.836Z,94435.13
2023-03-31T12:46:31.414Z,94420.66
2023-03-31T12:49:17.882Z,94414.13
2023-03-31T12:52:00.750Z,94408.50
2023-03-31T12:54:45.945Z,94405.63
2023-03-31T12:57:17.605Z,94402.16
2023-03-31T12:59:47.341Z,94397.25
2023-03-31T13:02:28.210Z,94389.09
2023-03-31T13:04:57.490Z,94369.97
2023-03-31T13:07:43.826Z,94364.81
2023-03-31T13:10:28.485Z,94355.34
2023-03-31T13:13:05.515Z,94351.16
2023-03-31T13:15:35.238Z,94342.63
2023-03-31T13:18:08.271Z,94339.34
2023-03-31T13:20:39.383Z,94335.22
2023-03-31T13:23:20.987Z,94327.50
2023-03-31T13:25:52.301Z,94321.91
2023-03-31T13:28:42.598Z,94309.44
2023-03-31T13:31:13.490Z,94313.09
2023-03-31T13:33:57.702Z,94307.53
2023-03-31T13:36:51.591Z,94298.47
2023-03-31T13:39:36.936Z,94285.91
2023-03-31T13:42:28.206Z,94279.13
2023-03-31T13:45:20.708Z,94269.72
2023-03-31T13:48:05.838Z,94269.91
2023-03-31T13:50:52.210Z,94264.97
2023-03-31T13:53:42.290Z,94263.41
2023-03-31T13:56:28.568Z,94261.19
2023-03-31T13:59:29.488Z,94270.22
2023-03-31T14:02:31.258Z,94260.09
2023-03-31T14:05:24.417Z,94260.25
2023-03-31T14:08:00.130Z,94261.81
2023-03-31T14:10:32.408Z,94260.50
2023-03-31T14:13:10.037Z,94254.97
2023-03-31T14:15:42.559Z,94244.19
2023-03-31T14:18:17.562Z,94249.28
2023-03-31T14:20:57.665Z,94240.06
2023-03-31T14:23:44.559Z,94235.50
2023-03-31T14:26:22.911Z,94236.50
2023-03-31T14:29:02.504Z,94233.34
2023-03-31T14:31:37.140Z,94228.25
2023-03-31T14:34:33.333Z,94226.34
2023-03-31T14:37:05.245Z,94220.78
2023-03-31T14:39:41.981Z,94215.09
2023-03-31T14:42:14.996Z,94205.38
2023-03-31T14:44:47.028Z,94208.09
2023-03-31T14:47:22.155Z,94210.34
2023-03-31T14:50:01.910Z,94204.81
2023-03-31T14:52:35.913Z,94202.75
2023-03-31T14:55:07.180Z,94202.56
2023-03-31T14:57:39.850Z,94203.25
2023-03-31T15:00:14.541Z,94206.09
2023-03-31T15:02:46.058Z,94197.41
2023-03-31T15:05:25.956Z,94192.44
2023-03-31T15:07:59.509Z,94190.59
2023-03-31T15:10:35.183Z,94195.28
2023-03-31T15:13:11.140Z,94192.75
2023-03-31T15:15:40.550Z,94196.19
2023-03-31T15:18:13.486Z,94191.72
2023-03-31T15:20:43.223Z,94184.59
2023-03-31T15:23:25.213Z,94193.66
2023-03-31T15:25:59.843Z,94184.00
2023-03-31T15:28:34.261Z,94181.63
2023-03-31T15:31:10.618Z,94173.50
2023-03-31T15:33:42.923Z,94173.53
2023-03-31T15:36:14.013Z,94180.22
2023-03-31T15:38:44.225Z,94167.38
2023-03-31T15:41:17.105Z,94168.28
2023-03-31T15:43:51.113Z,94171.72
2023-03-31T15:46:26.444Z,94174.25
2023-03-31T15:48:59.097Z,94175.50
2023-03-31T15:51:34.394Z,94177.38
2023-03-31T15:54:03.708Z,94176.56
2023-03-31T15:56:39.331Z,94171.53
2023-03-31T16:02:20.354Z,94158.03
2023-03-31T16:04:52.127Z,94155.66
2023-03-31T16:07:25.190Z,94152.19
2023-03-31T16:09:57.317Z,94161.34
2023-03-31T16:12:31.884Z,94156.47
2023-03-31T16:15:06.236Z,94150.63
2023-03-31T16:17:40.100Z,94151.53
2023-03-31T16:20:11.316Z,94141.22
2023-03-31T16:22:44.762Z,94154.34
2023-03-31T16:25:20.313Z,94149.91
2023-03-31T16:27:55.126Z,94157.34
2023-03-31T16:30:36.615Z,94160.16
2023-03-31T16:33:07.689Z,94154.69
2023-03-31T16:35:40.039Z,94148.13
2023-03-31T16:38:11.614Z,94145.00
2023-03-31T16:40:44.100Z,94142.03
2023-03-31T16:43:18.063Z,94144.91
2023-03-31T16:45:48.821Z,94137.84
2023-03-31T16:48:19.385Z,94137.72
2023-03-31T16:50:51.878Z,94129.84
2023-03-31T16:53:24.283Z,94133.38
2023-03-31T16:55:53.414Z,94126.75
2023-03-31T16:58:25.112Z,94131.44
2023-03-31T17:00:54.957Z,94138.78
2023-03-31T17:03:25.100Z,94147.56
2023-03-31T17:05:58.610Z,94148.66
2023-03-31T17:08:29.443Z,94142.47
2023-03-31T17:11:02.619Z,94145.75
2023-03-31T17:13:34.006Z,94133.44
2023-03-31T17:16:16.332Z,94128.34
2023-03-31T17:18:51.489Z,94141.19
2023-03-31T17:21:21.390Z,94142.97
2023-03-31T17:23:50.630Z,94141.78
2023-03-31T17:26:20.083Z,94144.34
2023-03-31T17:28:50.846Z,94134.88
2023-03-31T17:31:23.077Z,94137.28
2023-03-31T17:33:52.218Z,94136.81
2023-03-31T17:36:22.672Z,94139.28
2023-03-31T17:38:52.395Z,94144.94
2023-03-31T17:41:21.672Z,94144.41
2023-03-31T17:43:52.315Z,94148.22
2023-03-31T17:46:21.425Z,94144.78
2023-03-31T17:48:51.128Z,94149.66
2023-03-31T17:51:21.653Z,94151.88
2023-03-31T17:53:51.124Z,94150.34
2023-03-31T17:56:20.246Z,94150.34
2023-03-31T17:58:49.452Z,94149.34
2023-03-31T18:01:20.168Z,94149.09
2023-03-31T18:03:50.082Z,94153.66
2023-03-31T18:06:19.897Z,94148.63
2023-03-31T18:08:49.138Z,94163.31
2023-03-31T18:11:18.432Z,94155.47
2023-03-31T18:13:47.758Z,94152.28
2023-03-31T18:16:17.543Z,94160.78
2023-03-31T18:18:49.334Z,94160.78
2023-03-31T18:21:18.357Z,94149.66
2023-03-31T18:23:52.833Z,94150.16
2023-03-31T18:26:22.974Z,94153.16
2023-03-31T18:28:52.426Z,94153.44
2023-03-31T18:31:22.852Z,94148.44
2023-03-31T18:33:54.843Z,94159.88
2023-03-31T18:36:24.664Z,94144.97
2023-03-31T18:38:55.735Z,94145.81
2023-03-31T18:41:25.306Z,94142.91
2023-03-31T18:43:54.828Z,94145.81
2023-03-31T18:46:23.996Z,94146.34
2023-03-31T18:48:54.802Z,94151.44
2023-03-31T18:51:24.160Z,94146.66
2023-03-31T18:53:53.200Z,94150.16
2023-03-31T18:56:23.465Z,94144.28
2023-03-31T18:58:52.999Z,94144.84
2023-03-31T19:01:24.334Z,94152.53
2023-03-31T19:03:55.047Z,94148.56
2023-03-31T19:06:24.256Z,94160.53
2023-03-31T19:08:54.958Z,94158.94
2023-03-31T19:11:24.428Z,94163.72
2023-03-31T19:13:55.852Z,94136.38
2023-03-31T19:16:27.090Z,94147.75
2023-03-31T19:18:57.884Z,94146.72
2023-03-31T19:21:27.334Z,94147.78
2023-03-31T19:23:56.345Z,94132.66
2023-03-31T19:26:26.604Z,94132.66
2023-03-31T19:28:57.565Z,94132.66
2023-03-31T19:31:26.726Z,94141.16
2023-03-31T19:33:55.946Z,94135.56
2023-03-31T19:36:27.203Z,94145.91
2023-03-31T19:38:56.390Z,94136.59
2023-03-31T19:41:27.184Z,94137.41
2023-03-31T19:43:56.587Z,94142.47
2023-03-31T19:46:26.278Z,94157.03
2023-03-31T19:48:55.467Z,94151.72
2023-03-31T19:51:26.075Z,94153.06
2023-03-31T19:53:55.243Z,94147.22
2023-03-31T19:56:25.941Z,94152.00
2023-03-31T19:58:55.210Z,94152.28
2023-03-31T20:01:27.590Z,94145.66
2023-03-31T20:03:57.371Z,94143.78
2023-03-31T20:06:29.199Z,94155.72
2023-03-31T20:09:00.373Z,94154.66
2023-03-31T20:11:31.119Z,94148.03
2023-03-31T20:14:00.989Z,94149.84
2023-03-31T20:16:31.914Z,94152.72
2023-03-31T20:19:04.420Z,94137.31
2023-03-31T20:21:36.960Z,94136.78
2023-03-31T20:24:07.715Z,94136.53
2023-03-31T20:26:37.581Z,94135.97
2023-03-31T20:29:06.933Z,94130.69
2023-03-31T20:31:37.997Z,94124.84
2023-03-31T20:34:08.636Z,94127.22
2023-03-31T20:36:40.749Z,94130.41
2023-03-31T20:39:11.035Z,94135.94
2023-03-31T20:41:40.450Z,94131.72
2023-03-31T20:44:13.498Z,94133.31
2023-03-31T20:46:44.927Z,94126.94
2023-03-31T20:49:14.297Z,94129.59
2023-03-31T20:51:46.133Z,94128.03
2023-03-31T20:54:15.771Z,94130.41
2023-03-31T20:56:44.919Z,94123.53
2023-03-31T20:59:16.344Z,94131.25
2023-03-31T21:01:48.087Z,94115.66
2023-03-31T21:04:18.290Z,94116.69
2023-03-31T21:06:49.424Z,94111.13
2023-03-31T21:09:18.796Z,94112.19
2023-03-31T21:11:49.143Z,94110.34
2023-03-31T21:14:19.336Z,94105.28
2023-03-31T21:16:48.469Z,94111.16
2023-03-31T21:19:17.539Z,94115.13
2023-03-31T21:21:46.622Z,94106.63
2023-03-31T21:24:17.226Z,94104.25
2023-03-31T21:26:46.358Z,94096.78
2023-03-31T21:29:15.314Z,94096.50
2023-03-31T21:31:46.041Z,94094.63
2023-03-31T21:34:15.172Z,94086.69
2023-03-31T21:36:44.384Z,94077.91
2023-03-31T21:39:13.387Z,94087.75
2023-03-31T21:41:44.514Z,94085.34
2023-03-31T21:44:13.636Z,94093.56
2023-03-31T21:46:45.236Z,94084.78
2023-03-31T21:49:15.285Z,94094.09
2023-03-31T21:51:45.350Z,94096.22
2023-03-31T21:54:15.118Z,94087.19
2023-03-31T21:56:45.627Z,94090.66
2023-03-31T21:59:14.792Z,94092.78
2023-03-31T22:01:44.543Z,94090.91
2023-03-31T22:04:13.779Z,94098.88
2023-03-31T22:06:42.778Z,94094.44
2023-03-31T22:09:11.875Z,94086.19
2023-03-31T22:11:41.682Z,94081.44
2023-03-31T22:14:12.396Z,94081.44
2023-03-31T22:16:41.687Z,94086.47
2023-03-31T22:19:14.500Z,94088.88
2023-03-31T22:21:44.059Z,94088.31
2023-03-31T22:24:14.798Z,94087.81
2023-03-31T22:26:43.939Z,94092.84
2023-03-31T22:29:17.361Z,94092.84
2023-03-31T22:31:46.456Z,94092.59
2023-03-31T22:34:16.187Z,94085.69
2023-03-31T22:36:45.284Z,94085.13
2023-03-31T22:39:14.395Z,94078.78
2023-03-31T22:41:44.200Z,94070.31
2023-03-31T22:44:13.953Z,94064.97
2023-03-31T22:46:46.595Z,94055.69
2023-03-31T22:49:16.765Z,94058.34
2023-03-31T22:51:46.387Z,94062.84
2023-03-31T22:54:18.444Z,94064.97
2023-03-31T22:56:47.620Z,94060.75
2023-03-31T22:59:19.251Z,94062.59
2023-03-31T23:01:54.111Z,94059.94
2023-03-31T23:04:23.623Z,94058.63
2023-03-31T23:06:53.092Z,94059.41
2023-03-31T23:09:22.421Z,94057.28
2023-03-31T23:11:51.690Z,94051.19
2023-03-31T23:14:20.783Z,94047.72
2023-03-31T23:16:49.933Z,94047.44
2023-03-31T23:19:20.945Z,94050.13
2023-03-31T23:21:50.107Z,94054.13
2023-03-31T23:24:21.499Z,94045.63
2023-03-31T23:26:50.811Z,94051.44
2023-03-31T23:29:19.738Z,94050.91
2023-03-31T23:31:48.894Z,94045.34
2023-03-31T23:34:19.561Z,94053.56
2023-03-31T23:36:48.706Z,94044.81
2023-03-31T23:39:17.622Z,94042.94
2023-03-31T23:41:47.474Z,94050.63
2023-03-31T23:44:16.696Z,94043.47
2023-03-31T23:46:46.565Z,94037.09
2023-03-31T23:49:16.034Z,94038.94
2023-03-31T23:51:46.549Z,94032.56
2023-03-31T23:54:15.620Z,94032.03
2023-03-31T23:56:44.622Z,94030.16
2023-03-31T23:59:17.146Z,94018.78
